createdAt,value
2022-11-22T00:02:55.453Z,96082.78
2022-11-22T00:07:57.221Z,96075.00
2022-11-22T00:12:59.282Z,96067.38
2022-11-22T00:18:01.071Z,96061.50
2022-11-22T00:23:03.497Z,96056.81
2022-11-22T00:28:05.319Z,96066.97
2022-11-22T00:33:07.101Z,96073.00
2022-11-22T00:38:08.885Z,96077.53
2022-11-22T00:43:10.703Z,96072.69
2022-11-22T00:48:12.531Z,96060.50
2022-11-22T00:53:14.272Z,96045.09
2022-11-22T00:58:16.244Z,96053.22
2022-11-22T01:03:18.172Z,96050.91
2022-11-22T01:08:19.997Z,96043.88
2022-11-22T01:13:21.775Z,96053.34
2022-11-22T01:18:23.575Z,96055.25
2022-11-22T01:23:25.398Z,96063.94
2022-11-22T01:28:27.327Z,96068.88
2022-11-22T01:33:29.386Z,96061.03
2022-11-22T01:38:31.193Z,96050.28
2022-11-22T01:43:32.982Z,96061.06
2022-11-22T01:48:48.157Z,96042.97
2022-11-22T01:53:50.891Z,96033.34
2022-11-22T01:58:58.611Z,96022.56
2022-11-22T02:04:02.676Z,96028.31
2022-11-22T02:09:11.191Z,96017.47
2022-11-22T02:14:16.477Z,96015.28
2022-11-22T02:19:39.828Z,96014.31
2022-11-22T02:24:46.912Z,96010.78
2022-11-22T02:29:48.732Z,95990.09
2022-11-22T02:34:51.994Z,95973.09
2022-11-22T02:39:59.106Z,95970.63
2022-11-22T02:45:00.892Z,95988.44
2022-11-22T02:50:02.709Z,95987.09
2022-11-22T02:55:04.861Z,95994.63
2022-11-22T03:00:07.382Z,95985.38
2022-11-22T03:05:09.845Z,95980.94
2022-11-22T03:10:11.699Z,95977.06
2022-11-22T03:15:13.499Z,95967.47
2022-11-22T03:20:15.598Z,95963.16
2022-11-22T03:25:17.372Z,95956.38
2022-11-22T03:30:19.277Z,95954.19
2022-11-22T03:35:21.061Z,95959.56
2022-11-22T03:40:22.824Z,95957.75
2022-11-22T03:45:24.578Z,95948.69
2022-11-22T03:50:26.362Z,95949.53
2022-11-22T03:55:28.236Z,95937.69
2022-11-22T04:00:30.299Z,95940.59
2022-11-22T04:05:32.068Z,95933.28
2022-11-22T04:10:34.082Z,95918.84
2022-11-22T04:15:36.970Z,95918.06
2022-11-22T04:20:58.354Z,95906.94
2022-11-22T04:26:00.140Z,95905.84
2022-11-22T04:31:20.476Z,95922.09
2022-11-22T04:36:22.224Z,95926.47
2022-11-22T04:41:24.007Z,95921.28
2022-11-22T04:46:25.778Z,95920.09
2022-11-22T04:51:46.024Z,95925.06
2022-11-22T04:56:48.079Z,95919.09
2022-11-22T05:01:49.855Z,95931.78
2022-11-22T05:06:51.691Z,95932.53
2022-11-22T05:11:53.849Z,95936.53
2022-11-22T05:16:55.676Z,95938.63
2022-11-22T05:21:57.472Z,95953.00
2022-11-22T05:26:59.280Z,95941.03
2022-11-22T05:32:01.058Z,95959.34
2022-11-22T05:37:02.847Z,95973.28
2022-11-22T05:42:05.972Z,95986.16
2022-11-22T05:47:07.911Z,95990.44
2022-11-22T05:52:09.714Z,95987.25
2022-11-22T05:57:11.596Z,95998.38
2022-11-22T06:02:13.477Z,95997.38
2022-11-22T06:07:15.410Z,95981.75
2022-11-22T06:12:17.233Z,95974.44
2022-11-22T06:17:19.178Z,95983.91
2022-11-22T06:22:20.979Z,95994.13
2022-11-22T06:27:22.900Z,96019.91
2022-11-22T06:32:24.668Z,96019.78
2022-11-22T06:37:26.482Z,96024.44
2022-11-22T06:42:28.293Z,96021.25
2022-11-22T06:47:30.126Z,96023.13
2022-11-22T06:52:31.942Z,96020.59
2022-11-22T06:57:33.708Z,96017.91
2022-11-22T07:02:35.458Z,96030.09
2022-11-22T07:07:37.365Z,96032.31
2022-11-22T07:12:39.220Z,96033.09
2022-11-22T07:17:41.105Z,96043.34
2022-11-22T07:22:42.957Z,96042.34
2022-11-22T07:27:44.840Z,96044.78
2022-11-22T07:32:49.777Z,96042.09
2022-11-22T07:37:51.580Z,96030.75
2022-11-22T07:42:58.321Z,96044.34
2022-11-22T07:48:00.943Z,96042.00
2022-11-22T07:53:02.797Z,96054.47
2022-11-22T07:58:04.856Z,96058.84
2022-11-22T08:03:09.727Z,96053.75
2022-11-22T08:08:11.712Z,96062.41
2022-11-22T08:13:13.475Z,96080.81
2022-11-22T08:18:16.010Z,96084.66
2022-11-22T08:23:17.900Z,96096.03
2022-11-22T08:28:19.681Z,96089.94
2022-11-22T08:33:21.500Z,96096.31
2022-11-22T08:38:23.586Z,96102.72
2022-11-22T08:43:25.761Z,96114.22
2022-11-22T08:48:28.614Z,96131.16
2022-11-22T08:53:32.477Z,96124.25
2022-11-22T08:58:34.444Z,96121.97
2022-11-22T09:03:36.741Z,96126.91
2022-11-22T09:08:40.597Z,96127.47
2022-11-22T09:13:46.409Z,96136.16
2022-11-22T09:18:48.693Z,96129.47
2022-11-22T09:23:51.867Z,96143.03
2022-11-22T09:28:53.660Z,96148.13
2022-11-22T09:33:55.507Z,96146.72
2022-11-22T09:38:57.371Z,96148.00
2022-11-22T09:44:14.371Z,96144.63
2022-11-22T09:49:38.530Z,96151.63
2022-11-22T09:55:04.975Z,96152.75
2022-11-22T10:00:18.829Z,96162.06
2022-11-22T10:05:25.994Z,96161.78
2022-11-22T10:10:42.866Z,96174.75
2022-11-22T10:16:08.666Z,96172.28
2022-11-22T10:21:14.824Z,96185.69
2022-11-22T10:26:27.156Z,96192.94
2022-11-22T10:31:53.926Z,96201.03
2022-11-22T10:37:04.898Z,96199.69
2022-11-22T10:42:42.424Z,96193.84
2022-11-22T10:48:03.039Z,96188.50
2022-11-22T10:53:07.747Z,96194.00
2022-11-22T10:58:37.648Z,96192.22
2022-11-22T11:03:44.414Z,96193.22
2022-11-22T11:09:36.639Z,96190.75
2022-11-22T11:14:46.817Z,96190.84
2022-11-22T11:19:51.431Z,96182.59
2022-11-22T11:24:53.235Z,96172.06
2022-11-22T11:30:03.600Z,96166.25
2022-11-22T11:35:08.385Z,96174.09
2022-11-22T11:40:31.847Z,96168.31
2022-11-22T11:45:33.627Z,96160.38
2022-11-22T11:50:36.070Z,96159.91
2022-11-22T11:55:38.001Z,96159.59
2022-11-22T12:00:40.403Z,96164.78
2022-11-22T12:05:42.509Z,96164.91
2022-11-22T12:10:49.655Z,96159.81
2022-11-22T12:16:01.432Z,96167.25
2022-11-22T12:21:40.243Z,96173.19
2022-11-22T12:26:41.934Z,96170.69
2022-11-22T12:31:58.956Z,96166.63
2022-11-22T12:37:06.571Z,96172.34
2022-11-22T12:42:23.407Z,96176.94
2022-11-22T12:47:31.378Z,96169.97
2022-11-22T12:52:42.501Z,96177.69
2022-11-22T12:57:47.138Z,96181.25
2022-11-22T13:03:00.259Z,96182.47
2022-11-22T13:08:15.761Z,96174.94
2022-11-22T13:13:27.617Z,96179.91
2022-11-22T13:18:38.506Z,96172.94
2022-11-22T13:24:07.562Z,96172.69
2022-11-22T13:29:22.095Z,96176.69
2022-11-22T13:34:26.512Z,96176.09
2022-11-22T13:39:28.302Z,96183.59
2022-11-22T13:44:33.345Z,96193.44
2022-11-22T13:49:48.984Z,96176.47
2022-11-22T13:54:52.734Z,96175.78
2022-11-22T14:00:12.649Z,96184.09
2022-11-22T14:05:26.251Z,96176.69
2022-11-22T14:10:49.696Z,96178.34
2022-11-22T14:16:03.044Z,96176.31
2022-11-22T14:21:10.179Z,96189.66
2022-11-22T14:26:38.716Z,96175.09
2022-11-22T14:31:40.790Z,96172.59
2022-11-22T14:36:43.494Z,96175.31
2022-11-22T14:41:45.548Z,96165.91
2022-11-22T14:46:54.156Z,96174.91
2022-11-22T14:51:57.368Z,96170.03
2022-11-22T14:57:04.508Z,96175.81
2022-11-22T15:02:37.107Z,96184.84
2022-11-22T15:09:14.155Z,96201.94
2022-11-22T15:13:42.279Z,96212.38
2022-11-22T15:57:54.301Z,96240.66
2022-11-22T16:03:06.761Z,96241.84
2022-11-22T16:08:13.612Z,96246.97
2022-11-22T16:13:21.282Z,96241.53
2022-11-22T16:18:27.674Z,96253.16
2022-11-22T16:23:34.988Z,96260.09
2022-11-22T16:28:37.933Z,96270.34
2022-11-22T16:33:39.524Z,96255.78
2022-11-22T16:38:41.615Z,96260.56
2022-11-22T16:43:43.295Z,96271.94
2022-11-22T16:48:44.945Z,96284.44
2022-11-22T16:53:48.249Z,96292.59
2022-11-22T16:58:51.081Z,96290.84
2022-11-22T17:03:59.253Z,96296.56
2022-11-22T17:09:01.168Z,96296.72
2022-11-22T17:14:02.738Z,96301.84
2022-11-22T17:19:04.312Z,96311.72
2022-11-22T17:24:19.955Z,96308.94
2022-11-22T17:34:43.103Z,96310.94
2022-11-22T17:39:44.718Z,96316.06
2022-11-22T17:44:46.336Z,96322.44
2022-11-22T17:49:48.593Z,96320.72
2022-11-22T17:54:50.165Z,96326.81
2022-11-22T17:59:51.772Z,96325.81
2022-11-22T18:04:54.717Z,96324.06
2022-11-22T18:09:56.292Z,96328.06
2022-11-22T18:14:57.909Z,96334.47
2022-11-22T18:20:00.871Z,96324.84
2022-11-22T18:25:05.110Z,96335.09
2022-11-22T18:30:07.299Z,96343.47
2022-11-22T18:35:09.105Z,96347.19
2022-11-22T18:40:11.296Z,96343.97
2022-11-22T18:45:12.939Z,96351.50
2022-11-22T18:55:21.420Z,96376.50
2022-11-22T19:00:23.155Z,96366.69
2022-11-22T19:05:24.818Z,96366.34
2022-11-22T19:10:26.440Z,96372.53
2022-11-22T19:15:28.056Z,96386.63
2022-11-22T19:20:54.076Z,96375.75
2022-11-22T19:25:51.257Z,96389.91
2022-11-22T19:30:52.909Z,96385.75
2022-11-22T19:35:59.071Z,96384.88
2022-11-22T19:41:00.958Z,96394.31
2022-11-22T19:46:03.683Z,96416.22
2022-11-22T19:51:07.173Z,96418.66
2022-11-22T19:56:19.604Z,96421.06
2022-11-22T20:01:22.928Z,96417.06
2022-11-22T20:06:25.304Z,96414.97
2022-11-22T20:11:26.892Z,96412.41
2022-11-22T20:16:30.186Z,96415.78
2022-11-22T20:21:33.383Z,96416.75
2022-11-22T20:26:35.673Z,96425.19
2022-11-22T20:31:38.515Z,96422.56
2022-11-22T20:36:40.089Z,96420.44
2022-11-22T20:41:41.674Z,96419.03
2022-11-22T20:46:43.295Z,96411.59
2022-11-22T20:51:44.920Z,96415.47
2022-11-22T20:56:47.334Z,96419.50
2022-11-22T21:01:49.061Z,96413.28
2022-11-22T21:06:50.719Z,96413.72
2022-11-22T21:11:52.378Z,96411.47
2022-11-22T21:16:53.984Z,96416.84
2022-11-22T21:21:55.561Z,96416.75
2022-11-22T21:26:57.184Z,96413.13
2022-11-22T21:31:58.848Z,96419.63
2022-11-22T21:37:00.435Z,96424.44
2022-11-22T21:42:02.175Z,96413.78
2022-11-22T21:47:03.817Z,96421.38
2022-11-22T21:52:05.424Z,96433.00
2022-11-22T21:57:07.664Z,96428.75
2022-11-22T22:02:10.369Z,96433.47
2022-11-22T22:07:23.912Z,96427.03
2022-11-22T22:12:33.538Z,96430.09
2022-11-22T22:17:35.180Z,96428.59
2022-11-22T22:22:37.642Z,96431.72
2022-11-22T22:27:39.270Z,96436.84
2022-11-22T22:32:40.901Z,96442.06
2022-11-22T22:37:42.465Z,96442.53
2022-11-22T22:42:44.072Z,96447.56
2022-11-22T22:47:45.676Z,96439.75
2022-11-22T22:52:47.244Z,96434.97
2022-11-22T22:57:48.816Z,96444.28
2022-11-22T23:02:50.439Z,96445.63
2022-11-22T23:07:52.558Z,96449.88
2022-11-22T23:12:54.222Z,96452.56
2022-11-22T23:17:55.848Z,96447.59
2022-11-22T23:22:57.489Z,96454.06
2022-11-22T23:27:59.274Z,96458.22
2022-11-22T23:33:00.914Z,96452.84
2022-11-22T23:38:02.634Z,96459.97
2022-11-22T23:43:04.280Z,96451.66
2022-11-22T23:48:06.134Z,96452.97
2022-11-22T23:53:08.021Z,96457.44
2022-11-22T23:58:10.037Z,96463.19
